sensor_id;sensor_type;location;lat;lon;timestamp;P1;durP1;ratioP1;P2;durP2;ratioP2
7383;SDS011;3733;47.994;8.820;2023-02-15T00:01:37;156.10;;;23.20;;
7383;SDS011;3733;47.994;8.820;2023-02-15T00:04:03;178.70;;;23.87;;
7383;SDS011;3733;47.994;8.820;2023-02-15T00:06:30;87.53;;;19.60;;
7383;SDS011;3733;47.994;8.820;2023-02-15T00:08:56;66.30;;;21.17;;
7383;SDS011;3733;47.994;8.820;2023-02-15T00:11:22;183.20;;;24.63;;
7383;SDS011;3733;47.994;8.820;2023-02-15T00:14:06;213.80;;;24.40;;
7383;SDS011;3733;47.994;8.820;2023-02-15T00:16:36;65.93;;;19.63;;
7383;SDS011;3733;47.994;8.820;2023-02-15T00:19:03;155.70;;;22.80;;
7383;SDS011;3733;47.994;8.820;2023-02-15T00:21:30;196.40;;;25.90;;
7383;SDS011;3733;47.994;8.820;2023-02-15T00:23:57;177.40;;;23.43;;
7383;SDS011;3733;47.994;8.820;2023-02-15T00:26:24;142.03;;;21.87;;
7383;SDS011;3733;47.994;8.820;2023-02-15T00:28:49;188.80;;;24.40;;
7383;SDS011;3733;47.994;8.820;2023-02-15T00:31:15;135.17;;;21.03;;
7383;SDS011;3733;47.994;8.820;2023-02-15T00:33:41;79.80;;;20.13;;
7383;SDS011;3733;47.994;8.820;2023-02-15T00:36:08;87.90;;;20.53;;
7383;SDS011;3733;47.994;8.820;2023-02-15T00:38:34;215.20;;;22.00;;
7383;SDS011;3733;47.994;8.820;2023-02-15T00:41:01;51.30;;;19.30;;
7383;SDS011;3733;47.994;8.820;2023-02-15T00:43:29;94.87;;;20.10;;
7383;SDS011;3733;47.994;8.820;2023-02-15T00:45:56;84.33;;;17.60;;
7383;SDS011;3733;47.994;8.820;2023-02-15T00:48:22;109.20;;;19.47;;
7383;SDS011;3733;47.994;8.820;2023-02-15T00:50:55;148.03;;;22.30;;
7383;SDS011;3733;47.994;8.820;2023-02-15T00:53:22;166.27;;;20.30;;
7383;SDS011;3733;47.994;8.820;2023-02-15T00:55:49;62.07;;;17.97;;
7383;SDS011;3733;47.994;8.820;2023-02-15T00:58:15;113.07;;;19.43;;
7383;SDS011;3733;47.994;8.820;2023-02-15T01:00:42;111.53;;;18.43;;
7383;SDS011;3733;47.994;8.820;2023-02-15T01:03:09;91.17;;;17.87;;
7383;SDS011;3733;47.994;8.820;2023-02-15T01:05:36;52.83;;;17.43;;
7383;SDS011;3733;47.994;8.820;2023-02-15T01:08:02;134.07;;;19.07;;
7383;SDS011;3733;47.994;8.820;2023-02-15T01:10:27;104.67;;;18.57;;
7383;SDS011;3733;47.994;8.820;2023-02-15T01:12:54;74.40;;;17.27;;
7383;SDS011;3733;47.994;8.820;2023-02-15T01:15:20;158.07;;;22.40;;
7383;SDS011;3733;47.994;8.820;2023-02-15T01:17:45;46.17;;;17.30;;
7383;SDS011;3733;47.994;8.820;2023-02-15T01:20:20;41.03;;;17.73;;
7383;SDS011;3733;47.994;8.820;2023-02-15T01:22:48;39.70;;;16.40;;
7383;SDS011;3733;47.994;8.820;2023-02-15T01:25:15;51.67;;;16.40;;
7383;SDS011;3733;47.994;8.820;2023-02-15T01:27:41;32.03;;;17.40;;
7383;SDS011;3733;47.994;8.820;2023-02-15T01:30:08;38.30;;;17.23;;
7383;SDS011;3733;47.994;8.820;2023-02-15T01:32:34;37.40;;;17.57;;
7383;SDS011;3733;47.994;8.820;2023-02-15T01:35:00;38.40;;;16.93;;
7383;SDS011;3733;47.994;8.820;2023-02-15T01:37:25;66.70;;;16.20;;
7383;SDS011;3733;47.994;8.820;2023-02-15T01:39:51;44.57;;;15.73;;
7383;SDS011;3733;47.994;8.820;2023-02-15T01:42:22;51.50;;;14.60;;
7383;SDS011;3733;47.994;8.820;2023-02-15T01:44:55;55.33;;;16.93;;
7383;SDS011;3733;47.994;8.820;2023-02-15T01:47:33;33.33;;;16.07;;
7383;SDS011;3733;47.994;8.820;2023-02-15T01:55:15;23.10;;;14.47;;
7383;SDS011;3733;47.994;8.820;2023-02-15T01:57:42;26.67;;;12.57;;
7383;SDS011;3733;47.994;8.820;2023-02-15T02:00:10;23.80;;;13.20;;
7383;SDS011;3733;47.994;8.820;2023-02-15T02:02:36;25.20;;;14.17;;
7383;SDS011;3733;47.994;8.820;2023-02-15T02:05:03;21.93;;;13.77;;
7383;SDS011;3733;47.994;8.820;2023-02-15T02:07:32;26.57;;;13.47;;
7383;SDS011;3733;47.994;8.820;2023-02-15T02:10:04;24.93;;;14.53;;
7383;SDS011;3733;47.994;8.820;2023-02-15T02:12:30;29.40;;;14.63;;
7383;SDS011;3733;47.994;8.820;2023-02-15T02:14:57;52.23;;;15.83;;
7383;SDS011;3733;47.994;8.820;2023-02-15T02:36:35;59.40;;;14.23;;
7383;SDS011;3733;47.994;8.820;2023-02-15T02:39:30;26.90;;;14.30;;
7383;SDS011;3733;47.994;8.820;2023-02-15T02:47:48;26.97;;;15.43;;
7383;SDS011;3733;47.994;8.820;2023-02-15T02:50:28;36.97;;;14.70;;
7383;SDS011;3733;47.994;8.820;2023-02-15T02:52:56;22.97;;;11.83;;
7383;SDS011;3733;47.994;8.820;2023-02-15T02:58:02;22.07;;;13.37;;
7383;SDS011;3733;47.994;8.820;2023-02-15T03:00:29;20.50;;;11.87;;
7383;SDS011;3733;47.994;8.820;2023-02-15T03:03:00;23.13;;;13.80;;
7383;SDS011;3733;47.994;8.820;2023-02-15T03:05:33;22.80;;;13.80;;
7383;SDS011;3733;47.994;8.820;2023-02-15T03:08:01;22.30;;;12.67;;
7383;SDS011;3733;47.994;8.820;2023-02-15T03:10:31;22.93;;;13.47;;
7383;SDS011;3733;47.994;8.820;2023-02-15T03:12:59;25.70;;;12.53;;
7383;SDS011;3733;47.994;8.820;2023-02-15T03:15:27;23.43;;;12.23;;
7383;SDS011;3733;47.994;8.820;2023-02-15T03:18:16;25.50;;;13.33;;
7383;SDS011;3733;47.994;8.820;2023-02-15T03:20:45;20.47;;;12.90;;
7383;SDS011;3733;47.994;8.820;2023-02-15T03:23:13;20.97;;;12.80;;
7383;SDS011;3733;47.994;8.820;2023-02-15T03:25:44;23.37;;;13.67;;
7383;SDS011;3733;47.994;8.820;2023-02-15T03:28:17;21.13;;;12.60;;
7383;SDS011;3733;47.994;8.820;2023-02-15T03:30:46;22.63;;;12.87;;
7383;SDS011;3733;47.994;8.820;2023-02-15T03:33:16;20.40;;;11.70;;
7383;SDS011;3733;47.994;8.820;2023-02-15T03:38:20;21.90;;;12.60;;
7383;SDS011;3733;47.994;8.820;2023-02-15T03:40:50;20.50;;;11.73;;
7383;SDS011;3733;47.994;8.820;2023-02-15T03:49:20;20.43;;;12.90;;
7383;SDS011;3733;47.994;8.820;2023-02-15T03:51:54;24.47;;;13.53;;
7383;SDS011;3733;47.994;8.820;2023-02-15T03:54:26;24.23;;;13.37;;
7383;SDS011;3733;47.994;8.820;2023-02-15T03:57:10;24.70;;;13.70;;
7383;SDS011;3733;47.994;8.820;2023-02-15T04:00:06;23.00;;;13.93;;
7383;SDS011;3733;47.994;8.820;2023-02-15T04:05:40;21.83;;;13.03;;
7383;SDS011;3733;47.994;8.820;2023-02-15T04:08:07;21.73;;;12.00;;
7383;SDS011;3733;47.994;8.820;2023-02-15T04:10:33;22.27;;;12.70;;
7383;SDS011;3733;47.994;8.820;2023-02-15T04:13:24;20.17;;;12.60;;
7383;SDS011;3733;47.994;8.820;2023-02-15T04:15:55;20.13;;;12.00;;
7383;SDS011;3733;47.994;8.820;2023-02-15T04:18:28;19.90;;;12.43;;
7383;SDS011;3733;47.994;8.820;2023-02-15T04:21:16;18.70;;;12.67;;
7383;SDS011;3733;47.994;8.820;2023-02-15T04:24:00;21.73;;;12.93;;
7383;SDS011;3733;47.994;8.820;2023-02-15T04:26:44;22.40;;;12.63;;
7383;SDS011;3733;47.994;8.820;2023-02-15T04:29:10;23.70;;;13.63;;
7383;SDS011;3733;47.994;8.820;2023-02-15T04:31:35;20.20;;;11.83;;
7383;SDS011;3733;47.994;8.820;2023-02-15T04:34:01;22.00;;;11.80;;
7383;SDS011;3733;47.994;8.820;2023-02-15T04:36:26;21.70;;;12.20;;
7383;SDS011;3733;47.994;8.820;2023-02-15T04:38:52;23.53;;;13.17;;
7383;SDS011;3733;47.994;8.820;2023-02-15T04:41:17;19.07;;;11.97;;
7383;SDS011;3733;47.994;8.820;2023-02-15T04:43:43;22.67;;;13.53;;
7383;SDS011;3733;47.994;8.820;2023-02-15T04:46:09;22.20;;;12.60;;
7383;SDS011;3733;47.994;8.820;2023-02-15T04:48:34;21.37;;;13.10;;
7383;SDS011;3733;47.994;8.820;2023-02-15T04:51:04;21.50;;;12.20;;
7383;SDS011;3733;47.994;8.820;2023-02-15T04:53:31;23.40;;;12.57;;
7383;SDS011;3733;47.994;8.820;2023-02-15T04:55:57;26.90;;;13.90;;
7383;SDS011;3733;47.994;8.820;2023-02-15T04:58:22;28.27;;;14.50;;
7383;SDS011;3733;47.994;8.820;2023-02-15T05:00:48;24.10;;;13.27;;
7383;SDS011;3733;47.994;8.820;2023-02-15T05:03:14;26.07;;;12.60;;
7383;SDS011;3733;47.994;8.820;2023-02-15T05:05:39;22.47;;;12.90;;
7383;SDS011;3733;47.994;8.820;2023-02-15T05:08:05;24.00;;;14.60;;
7383;SDS011;3733;47.994;8.820;2023-02-15T05:10:31;27.57;;;13.60;;
7383;SDS011;3733;47.994;8.820;2023-02-15T05:12:56;21.67;;;12.83;;
7383;SDS011;3733;47.994;8.820;2023-02-15T05:15:22;25.43;;;13.47;;
7383;SDS011;3733;47.994;8.820;2023-02-15T05:17:47;25.10;;;14.53;;
7383;SDS011;3733;47.994;8.820;2023-02-15T05:20:13;20.00;;;12.73;;
7383;SDS011;3733;47.994;8.820;2023-02-15T05:22:39;32.87;;;14.53;;
7383;SDS011;3733;47.994;8.820;2023-02-15T05:25:05;24.57;;;13.80;;
7383;SDS011;3733;47.994;8.820;2023-02-15T05:27:51;24.43;;;12.80;;
7383;SDS011;3733;47.994;8.820;2023-02-15T05:30:35;22.47;;;13.87;;
7383;SDS011;3733;47.994;8.820;2023-02-15T05:33:01;23.43;;;12.93;;
7383;SDS011;3733;47.994;8.820;2023-02-15T05:35:26;22.20;;;12.70;;
7383;SDS011;3733;47.994;8.820;2023-02-15T05:37:52;25.93;;;13.23;;
7383;SDS011;3733;47.994;8.820;2023-02-15T05:40:18;25.50;;;14.03;;
7383;SDS011;3733;47.994;8.820;2023-02-15T05:42:43;26.40;;;13.30;;
7383;SDS011;3733;47.994;8.820;2023-02-15T05:45:09;24.50;;;13.17;;
7383;SDS011;3733;47.994;8.820;2023-02-15T05:47:35;26.93;;;15.50;;
7383;SDS011;3733;47.994;8.820;2023-02-15T05:50:00;27.60;;;14.40;;
7383;SDS011;3733;47.994;8.820;2023-02-15T05:52:26;31.60;;;14.43;;
7383;SDS011;3733;47.994;8.820;2023-02-15T05:54:51;30.30;;;13.77;;
7383;SDS011;3733;47.994;8.820;2023-02-15T05:57:17;23.80;;;13.20;;
7383;SDS011;3733;47.994;8.820;2023-02-15T05:59:42;28.33;;;14.63;;
7383;SDS011;3733;47.994;8.820;2023-02-15T06:02:08;26.00;;;14.70;;
7383;SDS011;3733;47.994;8.820;2023-02-15T06:04:34;27.60;;;14.93;;
7383;SDS011;3733;47.994;8.820;2023-02-15T06:06:59;31.27;;;15.70;;
7383;SDS011;3733;47.994;8.820;2023-02-15T06:09:25;27.23;;;13.40;;
7383;SDS011;3733;47.994;8.820;2023-02-15T06:11:50;28.97;;;15.90;;
7383;SDS011;3733;47.994;8.820;2023-02-15T06:14:16;31.30;;;16.07;;
7383;SDS011;3733;47.994;8.820;2023-02-15T06:16:42;28.83;;;15.13;;
7383;SDS011;3733;47.994;8.820;2023-02-15T06:19:07;38.20;;;17.13;;
7383;SDS011;3733;47.994;8.820;2023-02-15T06:21:33;29.90;;;15.93;;
7383;SDS011;3733;47.994;8.820;2023-02-15T06:23:58;30.90;;;16.10;;
7383;SDS011;3733;47.994;8.820;2023-02-15T06:26:24;33.07;;;16.20;;
7383;SDS011;3733;47.994;8.820;2023-02-15T06:28:50;32.33;;;16.87;;
7383;SDS011;3733;47.994;8.820;2023-02-15T06:31:15;32.33;;;16.33;;
7383;SDS011;3733;47.994;8.820;2023-02-15T06:33:41;28.87;;;15.20;;
7383;SDS011;3733;47.994;8.820;2023-02-15T06:36:06;26.80;;;15.90;;
7383;SDS011;3733;47.994;8.820;2023-02-15T06:38:32;41.57;;;18.80;;
7383;SDS011;3733;47.994;8.820;2023-02-15T06:40:58;38.10;;;18.00;;
7383;SDS011;3733;47.994;8.820;2023-02-15T06:43:23;28.80;;;15.83;;
7383;SDS011;3733;47.994;8.820;2023-02-15T06:45:49;31.80;;;16.27;;
7383;SDS011;3733;47.994;8.820;2023-02-15T06:48:15;36.87;;;15.53;;
7383;SDS011;3733;47.994;8.820;2023-02-15T06:50:40;28.73;;;15.43;;
7383;SDS011;3733;47.994;8.820;2023-02-15T06:53:06;34.83;;;15.80;;
7383;SDS011;3733;47.994;8.820;2023-02-15T06:55:32;35.23;;;16.83;;
7383;SDS011;3733;47.994;8.820;2023-02-15T06:57:57;32.93;;;16.57;;
7383;SDS011;3733;47.994;8.820;2023-02-15T07:00:23;31.30;;;17.13;;
7383;SDS011;3733;47.994;8.820;2023-02-15T07:02:55;28.37;;;15.60;;
7383;SDS011;3733;47.994;8.820;2023-02-15T07:05:22;32.20;;;16.90;;
7383;SDS011;3733;47.994;8.820;2023-02-15T07:07:56;30.97;;;14.47;;
7383;SDS011;3733;47.994;8.820;2023-02-15T07:10:22;31.77;;;16.87;;
7383;SDS011;3733;47.994;8.820;2023-02-15T07:12:48;32.50;;;16.00;;
7383;SDS011;3733;47.994;8.820;2023-02-15T07:15:17;33.93;;;17.00;;
7383;SDS011;3733;47.994;8.820;2023-02-15T07:17:45;38.10;;;17.90;;
7383;SDS011;3733;47.994;8.820;2023-02-15T07:20:16;30.83;;;16.03;;
7383;SDS011;3733;47.994;8.820;2023-02-15T07:22:46;29.57;;;15.73;;
7383;SDS011;3733;47.994;8.820;2023-02-15T07:25:12;30.90;;;15.23;;
7383;SDS011;3733;47.994;8.820;2023-02-15T07:27:38;32.13;;;16.10;;
7383;SDS011;3733;47.994;8.820;2023-02-15T07:30:05;34.77;;;16.77;;
7383;SDS011;3733;47.994;8.820;2023-02-15T07:32:32;27.50;;;14.80;;
7383;SDS011;3733;47.994;8.820;2023-02-15T07:34:59;29.50;;;15.30;;
7383;SDS011;3733;47.994;8.820;2023-02-15T07:37:25;29.00;;;14.27;;
7383;SDS011;3733;47.994;8.820;2023-02-15T07:39:50;27.30;;;14.50;;
7383;SDS011;3733;47.994;8.820;2023-02-15T07:42:16;26.57;;;13.50;;
7383;SDS011;3733;47.994;8.820;2023-02-15T07:44:44;21.30;;;12.03;;
7383;SDS011;3733;47.994;8.820;2023-02-15T07:47:10;24.47;;;13.33;;
7383;SDS011;3733;47.994;8.820;2023-02-15T07:49:36;22.10;;;12.30;;
7383;SDS011;3733;47.994;8.820;2023-02-15T07:52:03;28.03;;;13.50;;
7383;SDS011;3733;47.994;8.820;2023-02-15T07:54:28;26.40;;;12.57;;
7383;SDS011;3733;47.994;8.820;2023-02-15T07:56:54;29.97;;;13.00;;
7383;SDS011;3733;47.994;8.820;2023-02-15T07:59:20;25.37;;;13.17;;
7383;SDS011;3733;47.994;8.820;2023-02-15T08:01:45;24.83;;;12.97;;
7383;SDS011;3733;47.994;8.820;2023-02-15T08:04:11;27.63;;;13.03;;
7383;SDS011;3733;47.994;8.820;2023-02-15T08:06:37;33.43;;;12.93;;
7383;SDS011;3733;47.994;8.820;2023-02-15T08:09:06;26.40;;;13.40;;
7383;SDS011;3733;47.994;8.820;2023-02-15T08:11:34;27.83;;;14.23;;
7383;SDS011;3733;47.994;8.820;2023-02-15T08:19:19;24.60;;;12.50;;
7383;SDS011;3733;47.994;8.820;2023-02-15T08:21:53;24.87;;;11.80;;
7383;SDS011;3733;47.994;8.820;2023-02-15T08:24:22;23.50;;;12.50;;
7383;SDS011;3733;47.994;8.820;2023-02-15T08:26:49;18.57;;;11.00;;
7383;SDS011;3733;47.994;8.820;2023-02-15T08:29:16;23.80;;;11.30;;
7383;SDS011;3733;47.994;8.820;2023-02-15T08:31:42;23.70;;;11.20;;
7383;SDS011;3733;47.994;8.820;2023-02-15T08:34:09;22.30;;;10.70;;
7383;SDS011;3733;47.994;8.820;2023-02-15T08:36:38;22.93;;;11.37;;
7383;SDS011;3733;47.994;8.820;2023-02-15T08:39:04;23.10;;;12.37;;
7383;SDS011;3733;47.994;8.820;2023-02-15T08:41:34;22.00;;;11.50;;
7383;SDS011;3733;47.994;8.820;2023-02-15T08:44:01;20.83;;;10.50;;
7383;SDS011;3733;47.994;8.820;2023-02-15T08:46:30;22.43;;;10.63;;
7383;SDS011;3733;47.994;8.820;2023-02-15T08:48:57;23.47;;;11.77;;
7383;SDS011;3733;47.994;8.820;2023-02-15T08:51:24;17.40;;;9.87;;
7383;SDS011;3733;47.994;8.820;2023-02-15T08:53:54;25.03;;;10.90;;
7383;SDS011;3733;47.994;8.820;2023-02-15T08:56:26;15.53;;;9.07;;
7383;SDS011;3733;47.994;8.820;2023-02-15T08:58:53;11.43;;;7.10;;
7383;SDS011;3733;47.994;8.820;2023-02-15T09:01:21;18.97;;;9.03;;
7383;SDS011;3733;47.994;8.820;2023-02-15T09:03:49;14.47;;;8.70;;
7383;SDS011;3733;47.994;8.820;2023-02-15T09:06:18;14.10;;;8.63;;
7383;SDS011;3733;47.994;8.820;2023-02-15T09:08:45;14.43;;;8.33;;
7383;SDS011;3733;47.994;8.820;2023-02-15T09:11:15;15.33;;;8.80;;
7383;SDS011;3733;47.994;8.820;2023-02-15T09:13:47;17.70;;;8.80;;
7383;SDS011;3733;47.994;8.820;2023-02-15T09:16:17;18.03;;;9.57;;
7383;SDS011;3733;47.994;8.820;2023-02-15T09:18:43;18.50;;;9.60;;
7383;SDS011;3733;47.994;8.820;2023-02-15T09:21:13;19.73;;;9.53;;
7383;SDS011;3733;47.994;8.820;2023-02-15T09:23:40;18.70;;;9.57;;
7383;SDS011;3733;47.994;8.820;2023-02-15T09:26:08;16.97;;;10.00;;
7383;SDS011;3733;47.994;8.820;2023-02-15T09:28:38;21.37;;;9.70;;
7383;SDS011;3733;47.994;8.820;2023-02-15T09:31:14;14.80;;;8.60;;
7383;SDS011;3733;47.994;8.820;2023-02-15T09:33:41;14.60;;;8.87;;
7383;SDS011;3733;47.994;8.820;2023-02-15T09:38:39;19.47;;;9.30;;
7383;SDS011;3733;47.994;8.820;2023-02-15T09:43:46;15.00;;;8.77;;
7383;SDS011;3733;47.994;8.820;2023-02-15T09:49:00;16.17;;;9.40;;
7383;SDS011;3733;47.994;8.820;2023-02-15T10:02:18;20.60;;;10.43;;
7383;SDS011;3733;47.994;8.820;2023-02-15T10:04:46;21.87;;;11.87;;
7383;SDS011;3733;47.994;8.820;2023-02-15T10:16:01;23.73;;;13.80;;
7383;SDS011;3733;47.994;8.820;2023-02-15T10:27:11;28.93;;;14.50;;
7383;SDS011;3733;47.994;8.820;2023-02-15T10:30:05;30.97;;;14.00;;
7383;SDS011;3733;47.994;8.820;2023-02-15T10:32:39;31.53;;;14.57;;
7383;SDS011;3733;47.994;8.820;2023-02-15T10:35:14;26.70;;;13.67;;
7383;SDS011;3733;47.994;8.820;2023-02-15T10:51:32;34.43;;;15.70;;
7383;SDS011;3733;47.994;8.820;2023-02-15T10:54:28;32.10;;;14.73;;
7383;SDS011;3733;47.994;8.820;2023-02-15T11:05:26;41.17;;;16.90;;
7383;SDS011;3733;47.994;8.820;2023-02-15T11:08:06;29.80;;;15.67;;
7383;SDS011;3733;47.994;8.820;2023-02-15T11:13:32;35.40;;;17.70;;
7383;SDS011;3733;47.994;8.820;2023-02-15T11:16:12;33.73;;;15.73;;
7383;SDS011;3733;47.994;8.820;2023-02-15T11:18:43;33.67;;;16.50;;
7383;SDS011;3733;47.994;8.820;2023-02-15T11:21:29;36.70;;;16.50;;
7383;SDS011;3733;47.994;8.820;2023-02-15T11:23:57;35.77;;;17.20;;
7383;SDS011;3733;47.994;8.820;2023-02-15T11:26:37;30.73;;;15.90;;
7383;SDS011;3733;47.994;8.820;2023-02-15T11:29:10;28.00;;;16.13;;
7383;SDS011;3733;47.994;8.820;2023-02-15T11:31:41;35.73;;;16.40;;
7383;SDS011;3733;47.994;8.820;2023-02-15T11:34:15;30.33;;;17.00;;
7383;SDS011;3733;47.994;8.820;2023-02-15T11:36:52;34.90;;;16.93;;
7383;SDS011;3733;47.994;8.820;2023-02-15T11:39:20;33.47;;;16.00;;
7383;SDS011;3733;47.994;8.820;2023-02-15T11:41:49;33.53;;;16.40;;
7383;SDS011;3733;47.994;8.820;2023-02-15T11:44:23;27.80;;;15.60;;
7383;SDS011;3733;47.994;8.820;2023-02-15T11:46:53;35.00;;;17.00;;
7383;SDS011;3733;47.994;8.820;2023-02-15T11:51:58;29.60;;;15.90;;
7383;SDS011;3733;47.994;8.820;2023-02-15T11:54:31;30.60;;;15.90;;
7383;SDS011;3733;47.994;8.820;2023-02-15T11:57:17;24.87;;;15.03;;
7383;SDS011;3733;47.994;8.820;2023-02-15T11:59:49;26.13;;;16.00;;
7383;SDS011;3733;47.994;8.820;2023-02-15T12:02:35;29.00;;;15.23;;
7383;SDS011;3733;47.994;8.820;2023-02-15T12:05:06;30.20;;;15.47;;
7383;SDS011;3733;47.994;8.820;2023-02-15T12:07:46;22.40;;;11.33;;
7383;SDS011;3733;47.994;8.820;2023-02-15T12:10:19;17.37;;;10.73;;
7383;SDS011;3733;47.994;8.820;2023-02-15T12:12:46;24.30;;;10.20;;
7383;SDS011;3733;47.994;8.820;2023-02-15T12:15:12;14.03;;;8.73;;
7383;SDS011;3733;47.994;8.820;2023-02-15T12:17:39;19.47;;;8.23;;
7383;SDS011;3733;47.994;8.820;2023-02-15T12:22:45;13.37;;;6.40;;
7383;SDS011;3733;47.994;8.820;2023-02-15T12:27:48;14.40;;;6.80;;
7383;SDS011;3733;47.994;8.820;2023-02-15T12:30:19;10.80;;;7.53;;
7383;SDS011;3733;47.994;8.820;2023-02-15T12:32:59;9.40;;;6.70;;
7383;SDS011;3733;47.994;8.820;2023-02-15T12:35:32;9.83;;;6.60;;
7383;SDS011;3733;47.994;8.820;2023-02-15T12:38:04;9.48;;;6.80;;
7383;SDS011;3733;47.994;8.820;2023-02-15T12:41:05;8.52;;;5.80;;
7383;SDS011;3733;47.994;8.820;2023-02-15T12:43:42;10.88;;;5.90;;
7383;SDS011;3733;47.994;8.820;2023-02-15T12:46:21;8.45;;;5.13;;
7383;SDS011;3733;47.994;8.820;2023-02-15T12:51:47;13.07;;;5.88;;
7383;SDS011;3733;47.994;8.820;2023-02-15T12:56:53;7.45;;;4.60;;
7383;SDS011;3733;47.994;8.820;2023-02-15T12:59:19;5.93;;;4.25;;
7383;SDS011;3733;47.994;8.820;2023-02-15T13:01:45;6.75;;;4.18;;
7383;SDS011;3733;47.994;8.820;2023-02-15T13:06:51;6.30;;;5.13;;
7383;SDS011;3733;47.994;8.820;2023-02-15T13:09:20;11.95;;;5.03;;
7383;SDS011;3733;47.994;8.820;2023-02-15T13:11:50;9.18;;;4.28;;
7383;SDS011;3733;47.994;8.820;2023-02-15T13:14:24;5.75;;;3.65;;
7383;SDS011;3733;47.994;8.820;2023-02-15T13:16:56;4.03;;;3.40;;
7383;SDS011;3733;47.994;8.820;2023-02-15T13:19:33;4.10;;;3.47;;
7383;SDS011;3733;47.994;8.820;2023-02-15T13:22:02;3.35;;;2.80;;
7383;SDS011;3733;47.994;8.820;2023-02-15T13:24:33;3.70;;;2.70;;
7383;SDS011;3733;47.994;8.820;2023-02-15T13:27:12;4.50;;;3.20;;
7383;SDS011;3733;47.994;8.820;2023-02-15T13:29:46;6.30;;;3.73;;
7383;SDS011;3733;47.994;8.820;2023-02-15T13:35:16;4.77;;;3.03;;
7383;SDS011;3733;47.994;8.820;2023-02-15T13:40:31;10.27;;;3.70;;
7383;SDS011;3733;47.994;8.820;2023-02-15T13:48:44;4.33;;;2.80;;
7383;SDS011;3733;47.994;8.820;2023-02-15T13:59:30;4.93;;;2.80;;
7383;SDS011;3733;47.994;8.820;2023-02-15T14:16:20;6.50;;;3.00;;
7383;SDS011;3733;47.994;8.820;2023-02-15T14:19:09;3.50;;;2.60;;
7383;SDS011;3733;47.994;8.820;2023-02-15T14:30:24;6.17;;;2.90;;
7383;SDS011;3733;47.994;8.820;2023-02-15T14:33:05;5.20;;;2.80;;
7383;SDS011;3733;47.994;8.820;2023-02-15T14:35:44;6.40;;;3.07;;
7383;SDS011;3733;47.994;8.820;2023-02-15T14:49:06;15.73;;;9.07;;
7383;SDS011;3733;47.994;8.820;2023-02-15T14:54:57;18.43;;;10.87;;
7383;SDS011;3733;47.994;8.820;2023-02-15T15:04:32;24.73;;;12.00;;
7383;SDS011;3733;47.994;8.820;2023-02-15T15:09:32;25.13;;;12.33;;
7383;SDS011;3733;47.994;8.820;2023-02-15T15:12:12;17.20;;;11.60;;
7383;SDS011;3733;47.994;8.820;2023-02-15T15:14:48;18.93;;;12.70;;
7383;SDS011;3733;47.994;8.820;2023-02-15T15:22:37;20.90;;;13.07;;
7383;SDS011;3733;47.994;8.820;2023-02-15T15:25:08;22.03;;;12.13;;
7383;SDS011;3733;47.994;8.820;2023-02-15T15:27:57;20.50;;;13.90;;
7383;SDS011;3733;47.994;8.820;2023-02-15T15:41:41;20.53;;;12.00;;
7383;SDS011;3733;47.994;8.820;2023-02-15T15:49:58;20.53;;;12.67;;
7383;SDS011;3733;47.994;8.820;2023-02-15T15:52:24;24.13;;;13.90;;
7383;SDS011;3733;47.994;8.820;2023-02-15T15:54:56;24.27;;;13.30;;
7383;SDS011;3733;47.994;8.820;2023-02-15T15:57:31;24.83;;;14.00;;
7383;SDS011;3733;47.994;8.820;2023-02-15T16:00:00;21.87;;;12.70;;
7383;SDS011;3733;47.994;8.820;2023-02-15T16:02:27;22.67;;;13.20;;
7383;SDS011;3733;47.994;8.820;2023-02-15T16:04:53;23.97;;;14.23;;
7383;SDS011;3733;47.994;8.820;2023-02-15T16:07:20;22.60;;;13.37;;
7383;SDS011;3733;47.994;8.820;2023-02-15T16:09:56;25.50;;;13.53;;
7383;SDS011;3733;47.994;8.820;2023-02-15T16:12:26;26.90;;;13.37;;
7383;SDS011;3733;47.994;8.820;2023-02-15T16:14:54;21.60;;;13.03;;
7383;SDS011;3733;47.994;8.820;2023-02-15T16:17:21;23.70;;;15.87;;
7383;SDS011;3733;47.994;8.820;2023-02-15T16:19:50;22.67;;;14.00;;
7383;SDS011;3733;47.994;8.820;2023-02-15T16:22:20;27.53;;;15.83;;
7383;SDS011;3733;47.994;8.820;2023-02-15T16:24:57;30.20;;;16.07;;
7383;SDS011;3733;47.994;8.820;2023-02-15T16:27:42;29.03;;;16.17;;
7383;SDS011;3733;47.994;8.820;2023-02-15T16:33:13;33.10;;;15.13;;
7383;SDS011;3733;47.994;8.820;2023-02-15T16:36:01;33.93;;;16.80;;
7383;SDS011;3733;47.994;8.820;2023-02-15T16:41:13;31.60;;;17.47;;
7383;SDS011;3733;47.994;8.820;2023-02-15T16:43:41;27.77;;;17.07;;
7383;SDS011;3733;47.994;8.820;2023-02-15T16:46:16;28.30;;;16.80;;
7383;SDS011;3733;47.994;8.820;2023-02-15T16:48:43;30.13;;;16.63;;
7383;SDS011;3733;47.994;8.820;2023-02-15T16:51:17;29.53;;;16.17;;
7383;SDS011;3733;47.994;8.820;2023-02-15T16:53:48;28.77;;;17.43;;
7383;SDS011;3733;47.994;8.820;2023-02-15T16:56:14;35.97;;;19.17;;
7383;SDS011;3733;47.994;8.820;2023-02-15T16:58:43;31.30;;;17.17;;
7383;SDS011;3733;47.994;8.820;2023-02-15T17:01:11;39.23;;;20.00;;
7383;SDS011;3733;47.994;8.820;2023-02-15T17:03:39;40.57;;;18.83;;
7383;SDS011;3733;47.994;8.820;2023-02-15T17:06:23;27.20;;;15.07;;
7383;SDS011;3733;47.994;8.820;2023-02-15T17:09:02;26.17;;;15.30;;
7383;SDS011;3733;47.994;8.820;2023-02-15T17:11:40;24.77;;;13.47;;
7383;SDS011;3733;47.994;8.820;2023-02-15T17:16:36;22.47;;;13.53;;
7383;SDS011;3733;47.994;8.820;2023-02-15T17:19:09;35.00;;;16.97;;
7383;SDS011;3733;47.994;8.820;2023-02-15T17:22:17;31.73;;;19.77;;
7383;SDS011;3733;47.994;8.820;2023-02-15T17:24:41;37.13;;;18.30;;
7383;SDS011;3733;47.994;8.820;2023-02-15T17:27:18;28.93;;;18.73;;
7383;SDS011;3733;47.994;8.820;2023-02-15T17:29:56;30.53;;;18.67;;
7383;SDS011;3733;47.994;8.820;2023-02-15T17:32:23;33.87;;;18.20;;
7383;SDS011;3733;47.994;8.820;2023-02-15T17:40:35;22.70;;;14.30;;
7383;SDS011;3733;47.994;8.820;2023-02-15T17:42:55;29.77;;;15.30;;
7383;SDS011;3733;47.994;8.820;2023-02-15T17:45:22;27.10;;;15.50;;
7383;SDS011;3733;47.994;8.820;2023-02-15T17:47:51;27.43;;;16.17;;
7383;SDS011;3733;47.994;8.820;2023-02-15T17:50:24;38.40;;;18.97;;
7383;SDS011;3733;47.994;8.820;2023-02-15T17:52:52;33.00;;;17.97;;
7383;SDS011;3733;47.994;8.820;2023-02-15T17:55:20;36.17;;;17.67;;
7383;SDS011;3733;47.994;8.820;2023-02-15T17:58:06;31.20;;;15.87;;
7383;SDS011;3733;47.994;8.820;2023-02-15T18:00:34;27.47;;;15.00;;
7383;SDS011;3733;47.994;8.820;2023-02-15T18:03:21;33.47;;;17.30;;
7383;SDS011;3733;47.994;8.820;2023-02-15T18:06:06;41.27;;;19.77;;
7383;SDS011;3733;47.994;8.820;2023-02-15T18:08:50;42.17;;;20.23;;
7383;SDS011;3733;47.994;8.820;2023-02-15T18:11:34;44.33;;;19.80;;
7383;SDS011;3733;47.994;8.820;2023-02-15T18:14:04;34.30;;;19.10;;
7383;SDS011;3733;47.994;8.820;2023-02-15T18:16:35;36.33;;;19.67;;
7383;SDS011;3733;47.994;8.820;2023-02-15T18:19:04;37.47;;;19.20;;
7383;SDS011;3733;47.994;8.820;2023-02-15T18:21:33;47.43;;;21.87;;
7383;SDS011;3733;47.994;8.820;2023-02-15T18:23:59;46.27;;;22.77;;
7383;SDS011;3733;47.994;8.820;2023-02-15T18:26:25;42.37;;;19.30;;
7383;SDS011;3733;47.994;8.820;2023-02-15T18:28:52;44.37;;;21.00;;
7383;SDS011;3733;47.994;8.820;2023-02-15T18:31:18;38.17;;;18.40;;
7383;SDS011;3733;47.994;8.820;2023-02-15T18:33:46;36.93;;;19.13;;
7383;SDS011;3733;47.994;8.820;2023-02-15T18:36:17;37.20;;;19.27;;
7383;SDS011;3733;47.994;8.820;2023-02-15T18:38:50;28.30;;;16.43;;
7383;SDS011;3733;47.994;8.820;2023-02-15T18:41:17;31.50;;;15.77;;
7383;SDS011;3733;47.994;8.820;2023-02-15T18:43:44;37.00;;;18.80;;
7383;SDS011;3733;47.994;8.820;2023-02-15T18:46:10;37.57;;;18.07;;
7383;SDS011;3733;47.994;8.820;2023-02-15T18:48:36;36.87;;;20.43;;
7383;SDS011;3733;47.994;8.820;2023-02-15T18:51:02;34.17;;;18.60;;
7383;SDS011;3733;47.994;8.820;2023-02-15T18:53:28;37.93;;;20.13;;
7383;SDS011;3733;47.994;8.820;2023-02-15T18:55:54;48.50;;;20.97;;
7383;SDS011;3733;47.994;8.820;2023-02-15T18:58:20;40.17;;;19.97;;